createdAt,value
2017-12-04T00:02:30.963Z,3.83
2017-12-04T00:05:06.503Z,3.60
2017-12-04T00:07:42.650Z,3.53
2017-12-04T00:10:18.687Z,3.90
2017-12-04T00:12:55.640Z,3.60
2017-12-04T00:15:38.226Z,3.60
2017-12-04T00:18:14.282Z,3.80
2017-12-04T00:20:51.975Z,4.05
2017-12-04T00:23:35.080Z,4.03
2017-12-04T00:26:12.119Z,3.80
2017-12-04T00:28:50.378Z,3.72
2017-12-04T00:32:53.996Z,3.97
2017-12-04T00:35:34.261Z,5.05
2017-12-04T00:38:10.093Z,5.43
2017-12-04T00:40:46.069Z,6.18
2017-12-04T00:43:26.131Z,7.75
2017-12-04T00:48:54.017Z,5.90
2017-12-04T00:51:32.748Z,5.47
2017-12-04T01:35:00.265Z,7.68
2017-12-04T01:37:39.704Z,7.50
2017-12-04T01:41:37.855Z,5.62
2017-12-04T01:46:09.614Z,5.87
2017-12-04T01:48:59.114Z,4.93
2017-12-04T01:51:39.359Z,5.03
2017-12-04T01:54:17.080Z,4.55
2017-12-04T01:59:54.201Z,4.55
2017-12-04T02:02:30.650Z,3.75
2017-12-04T02:05:10.803Z,4.22
2017-12-04T02:07:56.281Z,4.53
2017-12-04T02:10:42.940Z,4.50
2017-12-04T02:13:20.917Z,4.25
2017-12-04T02:15:57.990Z,3.92
2017-12-04T02:18:37.261Z,4.85
2017-12-04T02:21:16.858Z,4.40
2017-12-04T02:23:57.874Z,3.95
2017-12-04T02:26:41.773Z,4.10
2017-12-04T02:29:21.363Z,4.47
2017-12-04T02:31:58.897Z,4.70
2017-12-04T02:34:40.682Z,5.20
2017-12-04T02:37:19.902Z,4.90
